Providence Village's Hourly Summary for Friday, January 21, 2022
Hour Temp
(f)
RH
(%)
Solar Rad.
(MJ/m2)
Rainfall
(in)
Wind
(mph)
Battery
(volts)
1/21/2022 12:00 AM 28 32 0 0 6.35 13.04
1/21/2022 1:00 AM 27 32 0 0 5.24 13.03
1/21/2022 2:00 AM 25 38 0 0 5.46 13.02
1/21/2022 3:00 AM 24 37 0 0 5.63 13.02
1/21/2022 4:00 AM 24 39 0 0 4.31 13.01
1/21/2022 5:00 AM 23 41 0 0 4.95 13.01
1/21/2022 6:00 AM 23 43 0 0 4.68 12.55
1/21/2022 7:00 AM 21 46 0 0 3.44 12.5
1/21/2022 8:00 AM 19 52 0 0 2.63 12.45
1/21/2022 9:00 AM 19 56 0.04 0 1.32 12.39
1/21/2022 10:00 AM 21 48 0.55 0 3.18 12.44
1/21/2022 11:00 AM 24 41 1.23 0 4.1 13.32
1/21/2022 12:00 PM 28 36 1.83 0 4.83 14.08
1/21/2022 1:00 PM 32 31 2.24 0 3.74 14.18
1/21/2022 2:00 PM 35 26 2.43 0 3.15 14.16
1/21/2022 3:00 PM 38 24 2.38 0 4.47 14.13
1/21/2022 4:00 PM 40 21 2.09 0 4.01 14.13
1/21/2022 5:00 PM 42 21 1.58 0 3.87 14.09
1/21/2022 6:00 PM 42 21 0.92 0 4.57 14.09
1/21/2022 7:00 PM 41 23 0.24 0 3.6 13.1
1/21/2022 8:00 PM 39 25 0 0 2.23 13.07
1/21/2022 9:00 PM 37 29 0 0 2.05 13.05
1/21/2022 10:00 PM 34 32 0 0 0.88 13.04
1/21/2022 11:00 PM 33 34 0 0 1.88 13.03
Data Summary 29 34 15.53 0.00 3.77 13.25